Centenario Blu — 3FXD7 — position and weather

sailwx.info

Track history (hours):
 
Tides and Currents Weather Stations Pressure Air Temp Water Temp Dewpoint Dewpoint Depression Visibility Wind Speed Wind Dir Waves Ship Positions

Centenario Blu

Last reported at 2014-Aug-17 18:33 UTC. Time now 2014-Sep-03 04:44 UTC.
Position N 46°12' W 124°10'.
Warning: this ship's position is 16 days out of date.

Length 190 m; draft 12.8 m.

Type: Cargo ship. MMSI: 356832000.

Date/timePositionNaut miles runAvg speedWind from/ knotsBaromVisibWave heightAir tempDewpointWater temp
2014-Aug-17 18:33N 46°12' W 124°10'8 8.3
2014-Aug-17 17:33N 46°14' W 123°59'8 8.1
2014-Aug-17 16:33N 46°13' W 123°47'1111.4
2014-Aug-17 15:33N 46°16' W 123°31'8 8.2
2014-Aug-17 14:33N 46°09' W 123°24'1110.5
2014-Aug-17 13:33N 46°11' W 123°09'1010.2
2014-Aug-17 12:33N 46°06' W 122°57'10 9.8
2014-Aug-17 11:31N 45°57' W 122°49'1010.5
2014-Aug-17 10:33N 45°47' W 122°47'9 8.5
2014-Aug-17 09:33N 45°39' W 122°45'0 0.1
2014-Aug-17 07:30N 45°39' W 122°46'0 0.0
2014-Aug-17 06:24N 45°39' W 122°46'0 0.0
2014-Aug-17 05:30N 45°39' W 122°46'0 0.0
2014-Aug-17 04:24N 45°39' W 122°46'1 0.1
2014-Aug-16 21:29N 45°39' W 122°46'0 0.0
2014-Aug-16 18:23N 45°39' W 122°46'0 0.0
2014-Aug-16 17:11N 45°39' W 122°46'0 0.0
2014-Aug-16 15:23N 45°39' W 122°46'0 0.0
2014-Aug-16 09:32N 45°39' W 122°46'0 0.0
2014-Aug-16 08:29N 45°39' W 122°46'0 0.0
2014-Aug-16 07:11N 45°39' W 122°46'0 0.0
2014-Aug-15 16:05N 45°39' W 122°46'0 0.0
2014-Aug-15 15:32N 45°39' W 122°46'0 0.0
2014-Aug-15 14:32N 45°39' W 122°46'0 0.0
2014-Aug-15 13:32N 45°39' W 122°46'0 0.0
2014-Aug-15 12:26N 45°39' W 122°46'0 0.0
2014-Aug-15 11:32N 45°39' W 122°46'0 0.0
2014-Aug-15 10:32N 45°39' W 122°46'0 0.0
2014-Aug-15 09:32N 45°39' W 122°46'0 0.0
2014-Aug-15 08:23N 45°39' W 122°46'0 0.0
2014-Aug-15 07:26N 45°39' W 122°46'0 0.0
2014-Aug-15 06:29N 45°39' W 122°46'0 0.0
2014-Aug-15 05:05N 45°39' W 122°46'0 0.0
2014-Aug-15 04:29N 45°39' W 122°46'0 0.0
2014-Aug-14 22:32N 45°39' W 122°46'0 0.0
2014-Aug-14 21:32N 45°39' W 122°46'0 0.0
2014-Aug-14 20:23N 45°39' W 122°46'0 0.0
2014-Aug-14 19:29N 45°39' W 122°46'0 0.0
2014-Aug-14 18:32N 45°39' W 122°46'0 0.0
2014-Aug-14 17:29N 45°39' W 122°46'0 0.0
2014-Aug-14 16:32N 45°39' W 122°46'0 0.0
2014-Aug-14 15:29N 45°39' W 122°46'0 0.0
2014-Aug-14 14:32N 45°39' W 122°46'0 0.0
2014-Aug-14 13:32N 45°39' W 122°46'0 0.0
2014-Aug-14 12:23N 45°39' W 122°46'0 0.0
2014-Aug-14 11:32N 45°39' W 122°46'0 0.0
2014-Aug-14 10:32N 45°39' W 122°46'0 0.0
2014-Aug-14 09:32N 45°39' W 122°46'0 0.0
2014-Aug-14 08:32N 45°39' W 122°46'0 0.0
2014-Aug-14 07:32N 45°39' W 122°46'0 0.0
2014-Aug-14 06:32N 45°39' W 122°46'0 0.0
2014-Aug-14 05:26N 45°39' W 122°46'0 0.0
2014-Aug-14 04:32N 45°39' W 122°46'0 0.0
2014-Aug-14 03:29N 45°39' W 122°46'0 0.0
2014-Aug-14 02:32N 45°39' W 122°46'0 0.0
2014-Aug-14 01:32N 45°39' W 122°46'0 0.0
2014-Aug-14 00:29N 45°39' W 122°46'0 0.0
2014-Aug-13 23:32N 45°39' W 122°46'0 0.0
2014-Aug-13 22:32N 45°39' W 122°46'0 0.0
2014-Aug-13 21:32N 45°39' W 122°46'0 0.0
2014-Aug-13 20:29N 45°39' W 122°46'0 0.0
2014-Aug-13 19:26N 45°39' W 122°46'0 0.0
2014-Aug-13 18:23N 45°39' W 122°46'0 0.0
2014-Aug-13 17:32N 45°39' W 122°46'0 0.0
2014-Aug-13 16:32N 45°39' W 122°46'0 0.0
2014-Aug-13 15:32N 45°39' W 122°46'0 0.0
2014-Aug-13 14:32N 45°39' W 122°46'0 0.0
2014-Aug-13 13:32N 45°39' W 122°46'0 0.0
2014-Aug-13 12:29N 45°39' W 122°46'0 0.0
2014-Aug-13 11:32N 45°39' W 122°46'0 0.0
2014-Aug-13 10:29N 45°39' W 122°46'0 0.0
2014-Aug-13 09:29N 45°39' W 122°46'0 0.0
2014-Aug-13 08:32N 45°39' W 122°46'0 0.0
2014-Aug-13 07:32N 45°39' W 122°46'0 0.0
2014-Aug-13 06:32N 45°39' W 122°46'0 0.0
2014-Aug-13 05:32N 45°39' W 122°46'0 0.0
2014-Aug-13 04:32N 45°39' W 122°46'0 0.0
2014-Aug-13 03:32N 45°39' W 122°46'0 0.0
2014-Aug-13 02:29N 45°39' W 122°46'0 0.0
2014-Aug-13 01:29N 45°39' W 122°46'0 0.0
2014-Aug-13 00:29N 45°39' W 122°46'0 0.0
2014-Aug-12 23:29N 45°39' W 122°46'0 0.0
2014-Aug-12 22:32N 45°39' W 122°46'0 0.0
2014-Aug-12 21:32N 45°39' W 122°46'2 1.7
2014-Aug-12 20:33N 45°39' W 122°44'0 0.1
2014-Aug-12 19:28N 45°38' W 122°44'0 0.0
2014-Aug-12 18:28N 45°38' W 122°44'0 0.0
2014-Aug-12 17:31N 45°38' W 122°44'0 0.0
2014-Aug-12 16:25N 45°38' W 122°44'0 0.0
2014-Aug-12 15:25N 45°38' W 122°44'0 0.1
2014-Aug-12 14:30N 45°38' W 122°44'0 0.0
2014-Aug-12 13:30N 45°38' W 122°44'0 0.0
2014-Aug-12 12:31N 45°38' W 122°44'0 0.0
2014-Aug-12 11:31N 45°38' W 122°44'0 0.0
2014-Aug-12 10:30N 45°38' W 122°44'0 0.1
2014-Aug-12 09:34N 45°38' W 122°44'0 0.0
2014-Aug-12 08:30N 45°38' W 122°44'0 0.0
2014-Aug-12 07:31N 45°38' W 122°44'0 0.0
2014-Aug-11 20:30N 45°38' W 122°44'0 0.0
2014-Aug-11 18:24N 45°38' W 122°44'0 0.0
2014-Aug-11 17:27N 45°38' W 122°44'0 0.0
2014-Aug-11 16:33N 45°38' W 122°44'0 0.0
2014-Aug-11 12:18N 45°38' W 122°44'0 0.0
2014-Aug-11 07:12N 45°38' W 122°44'0 0.0
2014-Aug-11 06:06N 45°38' W 122°44'0 0.0
2014-Aug-11 04:09N 45°38' W 122°44'0 0.0
2014-Aug-10 20:15N 45°38' W 122°44'0 0.0
2014-Aug-10 18:27N 45°38' W 122°44'0 0.0
2014-Aug-10 15:03N 45°38' W 122°44'0 0.0
2014-Aug-10 14:09N 45°38' W 122°44'0 0.0
2014-Aug-10 02:24N 45°38' W 122°44'0 0.0
2014-Aug-09 17:12N 45°38' W 122°44'0 0.0
2014-Aug-09 02:21N 45°38' W 122°44'0 0.0
2014-Aug-08 22:15N 45°38' W 122°44'0 0.0
2014-Aug-08 18:15N 45°38' W 122°44'0 0.0
2014-Aug-08 17:27N 45°38' W 122°44'0 0.0
2014-Aug-08 16:33N 45°38' W 122°44'17 1.2
2014-Aug-08 02:27N 45°55' W 122°49'1111.8
2014-Aug-08 01:33N 46°05' W 122°54'2211.0
2014-Aug-07 23:34N 46°10' W 123°25'9 9.1
2014-Aug-07 22:34N 46°15' W 123°35'10 9.6
2014-Aug-07 21:31N 46°12' W 123°49'0 0.2
2014-Aug-07 20:31N 46°12' W 123°49'0 0.1
2014-Aug-07 19:31N 46°12' W 123°49'  
Track history (hours):
 
Tides and Currents Weather Stations Pressure Air Temp Water Temp Dewpoint Dewpoint Depression Visibility Wind Speed Wind Dir Waves Ship Positions

Centenario Blu

Last reported at 2014-Aug-17 18:33 UTC. Time now 2014-Sep-03 04:44 UTC.
Position N 46°12' W 124°10'.
Warning: this ship's position is 16 days out of date.

Length 190 m; draft 12.8 m.

Type: Cargo ship. MMSI: 356832000.

Date/timePositionNaut miles runAvg speedWind from/ knotsBaromVisibWave heightAir tempDewpointWater temp
2014-Aug-17 18:33N 46°12' W 124°10'8 8.3
2014-Aug-17 17:33N 46°14' W 123°59'8 8.1
2014-Aug-17 16:33N 46°13' W 123°47'1111.4
2014-Aug-17 15:33N 46°16' W 123°31'8 8.2
2014-Aug-17 14:33N 46°09' W 123°24'1110.5
2014-Aug-17 13:33N 46°11' W 123°09'1010.2
2014-Aug-17 12:33N 46°06' W 122°57'10 9.8
2014-Aug-17 11:31N 45°57' W 122°49'1010.5
2014-Aug-17 10:33N 45°47' W 122°47'9 8.5
2014-Aug-17 09:33N 45°39' W 122°45'0 0.1
2014-Aug-17 07:30N 45°39' W 122°46'0 0.0
2014-Aug-17 06:24N 45°39' W 122°46'0 0.0
2014-Aug-17 05:30N 45°39' W 122°46'0 0.0
2014-Aug-17 04:24N 45°39' W 122°46'1 0.1
2014-Aug-16 21:29N 45°39' W 122°46'0 0.0
2014-Aug-16 18:23N 45°39' W 122°46'0 0.0
2014-Aug-16 17:11N 45°39' W 122°46'0 0.0
2014-Aug-16 15:23N 45°39' W 122°46'0 0.0
2014-Aug-16 09:32N 45°39' W 122°46'0 0.0
2014-Aug-16 08:29N 45°39' W 122°46'0 0.0
2014-Aug-16 07:11N 45°39' W 122°46'0 0.0
2014-Aug-15 16:05N 45°39' W 122°46'0 0.0
2014-Aug-15 15:32N 45°39' W 122°46'0 0.0
2014-Aug-15 14:32N 45°39' W 122°46'0 0.0
2014-Aug-15 13:32N 45°39' W 122°46'0 0.0
2014-Aug-15 12:26N 45°39' W 122°46'0 0.0
2014-Aug-15 11:32N 45°39' W 122°46'0 0.0
2014-Aug-15 10:32N 45°39' W 122°46'0 0.0
2014-Aug-15 09:32N 45°39' W 122°46'0 0.0
2014-Aug-15 08:23N 45°39' W 122°46'0 0.0
2014-Aug-15 07:26N 45°39' W 122°46'0 0.0
2014-Aug-15 06:29N 45°39' W 122°46'0 0.0
2014-Aug-15 05:05N 45°39' W 122°46'0 0.0
2014-Aug-15 04:29N 45°39' W 122°46'0 0.0
2014-Aug-14 22:32N 45°39' W 122°46'0 0.0
2014-Aug-14 21:32N 45°39' W 122°46'0 0.0
2014-Aug-14 20:23N 45°39' W 122°46'0 0.0
2014-Aug-14 19:29N 45°39' W 122°46'0 0.0
2014-Aug-14 18:32N 45°39' W 122°46'0 0.0
2014-Aug-14 17:29N 45°39' W 122°46'0 0.0
2014-Aug-14 16:32N 45°39' W 122°46'0 0.0
2014-Aug-14 15:29N 45°39' W 122°46'0 0.0
2014-Aug-14 14:32N 45°39' W 122°46'0 0.0
2014-Aug-14 13:32N 45°39' W 122°46'0 0.0
2014-Aug-14 12:23N 45°39' W 122°46'0 0.0
2014-Aug-14 11:32N 45°39' W 122°46'0 0.0
2014-Aug-14 10:32N 45°39' W 122°46'0 0.0
2014-Aug-14 09:32N 45°39' W 122°46'0 0.0
2014-Aug-14 08:32N 45°39' W 122°46'0 0.0
2014-Aug-14 07:32N 45°39' W 122°46'0 0.0
2014-Aug-14 06:32N 45°39' W 122°46'0 0.0
2014-Aug-14 05:26N 45°39' W 122°46'0 0.0
2014-Aug-14 04:32N 45°39' W 122°46'0 0.0
2014-Aug-14 03:29N 45°39' W 122°46'0 0.0
2014-Aug-14 02:32N 45°39' W 122°46'0 0.0
2014-Aug-14 01:32N 45°39' W 122°46'0 0.0
2014-Aug-14 00:29N 45°39' W 122°46'0 0.0
2014-Aug-13 23:32N 45°39' W 122°46'0 0.0
2014-Aug-13 22:32N 45°39' W 122°46'0 0.0
2014-Aug-13 21:32N 45°39' W 122°46'0 0.0
2014-Aug-13 20:29N 45°39' W 122°46'0 0.0
2014-Aug-13 19:26N 45°39' W 122°46'0 0.0
2014-Aug-13 18:23N 45°39' W 122°46'0 0.0
2014-Aug-13 17:32N 45°39' W 122°46'0 0.0
2014-Aug-13 16:32N 45°39' W 122°46'0 0.0
2014-Aug-13 15:32N 45°39' W 122°46'0 0.0
2014-Aug-13 14:32N 45°39' W 122°46'0 0.0
2014-Aug-13 13:32N 45°39' W 122°46'0 0.0
2014-Aug-13 12:29N 45°39' W 122°46'0 0.0
2014-Aug-13 11:32N 45°39' W 122°46'0 0.0
2014-Aug-13 10:29N 45°39' W 122°46'0 0.0
2014-Aug-13 09:29N 45°39' W 122°46'0 0.0
2014-Aug-13 08:32N 45°39' W 122°46'0 0.0
2014-Aug-13 07:32N 45°39' W 122°46'0 0.0
2014-Aug-13 06:32N 45°39' W 122°46'0 0.0
2014-Aug-13 05:32N 45°39' W 122°46'0 0.0
2014-Aug-13 04:32N 45°39' W 122°46'0 0.0
2014-Aug-13 03:32N 45°39' W 122°46'0 0.0
2014-Aug-13 02:29N 45°39' W 122°46'0 0.0
2014-Aug-13 01:29N 45°39' W 122°46'0 0.0
2014-Aug-13 00:29N 45°39' W 122°46'0 0.0
2014-Aug-12 23:29N 45°39' W 122°46'0 0.0
2014-Aug-12 22:32N 45°39' W 122°46'0 0.0
2014-Aug-12 21:32N 45°39' W 122°46'2 1.7
2014-Aug-12 20:33N 45°39' W 122°44'0 0.1
2014-Aug-12 19:28N 45°38' W 122°44'0 0.0
2014-Aug-12 18:28N 45°38' W 122°44'0 0.0
2014-Aug-12 17:31N 45°38' W 122°44'0 0.0
2014-Aug-12 16:25N 45°38' W 122°44'0 0.0
2014-Aug-12 15:25N 45°38' W 122°44'0 0.1
2014-Aug-12 14:30N 45°38' W 122°44'0 0.0
2014-Aug-12 13:30N 45°38' W 122°44'0 0.0
2014-Aug-12 12:31N 45°38' W 122°44'0 0.0
2014-Aug-12 11:31N 45°38' W 122°44'0 0.0
2014-Aug-12 10:30N 45°38' W 122°44'0 0.1
2014-Aug-12 09:34N 45°38' W 122°44'0 0.0
2014-Aug-12 08:30N 45°38' W 122°44'0 0.0
2014-Aug-12 07:31N 45°38' W 122°44'0 0.0
2014-Aug-11 20:30N 45°38' W 122°44'0 0.0
2014-Aug-11 18:24N 45°38' W 122°44'0 0.0
2014-Aug-11 17:27N 45°38' W 122°44'0 0.0
2014-Aug-11 16:33N 45°38' W 122°44'0 0.0
2014-Aug-11 12:18N 45°38' W 122°44'0 0.0
2014-Aug-11 07:12N 45°38' W 122°44'0 0.0
2014-Aug-11 06:06N 45°38' W 122°44'0 0.0
2014-Aug-11 04:09N 45°38' W 122°44'0 0.0
2014-Aug-10 20:15N 45°38' W 122°44'0 0.0
2014-Aug-10 18:27N 45°38' W 122°44'0 0.0
2014-Aug-10 15:03N 45°38' W 122°44'0 0.0
2014-Aug-10 14:09N 45°38' W 122°44'0 0.0
2014-Aug-10 02:24N 45°38' W 122°44'0 0.0
2014-Aug-09 17:12N 45°38' W 122°44'0 0.0
2014-Aug-09 02:21N 45°38' W 122°44'0 0.0
2014-Aug-08 22:15N 45°38' W 122°44'0 0.0
2014-Aug-08 18:15N 45°38' W 122°44'0 0.0
2014-Aug-08 17:27N 45°38' W 122°44'0 0.0
2014-Aug-08 16:33N 45°38' W 122°44'17 1.2
2014-Aug-08 02:27N 45°55' W 122°49'1111.8
2014-Aug-08 01:33N 46°05' W 122°54'2211.0
2014-Aug-07 23:34N 46°10' W 123°25'9 9.1
2014-Aug-07 22:34N 46°15' W 123°35'10 9.6
2014-Aug-07 21:31N 46°12' W 123°49'0 0.2
2014-Aug-07 20:31N 46°12' W 123°49'0 0.1
2014-Aug-07 19:31N 46°12' W 123°49'  

Dump ship's entire track history